sensor_id;sensor_type;location;lat;lon;timestamp;P1;durP1;ratioP1;P2;durP2;ratioP2
11042;SDS011;5574;48.786;10.120;2023-04-22T00:00:45;3.37;;;2.80;;
11042;SDS011;5574;48.786;10.120;2023-04-22T00:03:12;3.63;;;2.80;;
11042;SDS011;5574;48.786;10.120;2023-04-22T00:05:39;4.50;;;2.87;;
11042;SDS011;5574;48.786;10.120;2023-04-22T00:08:07;5.43;;;3.17;;
11042;SDS011;5574;48.786;10.120;2023-04-22T00:10:34;4.17;;;3.47;;
11042;SDS011;5574;48.786;10.120;2023-04-22T00:13:01;3.23;;;3.03;;
11042;SDS011;5574;48.786;10.120;2023-04-22T00:15:28;3.70;;;3.07;;
11042;SDS011;5574;48.786;10.120;2023-04-22T00:17:54;3.43;;;2.87;;
11042;SDS011;5574;48.786;10.120;2023-04-22T00:20:22;3.20;;;3.00;;
11042;SDS011;5574;48.786;10.120;2023-04-22T00:22:49;3.27;;;2.97;;
11042;SDS011;5574;48.786;10.120;2023-04-22T00:25:17;3.57;;;3.10;;
11042;SDS011;5574;48.786;10.120;2023-04-22T00:27:44;3.13;;;2.93;;
11042;SDS011;5574;48.786;10.120;2023-04-22T00:30:11;3.80;;;3.40;;
11042;SDS011;5574;48.786;10.120;2023-04-22T00:32:38;4.23;;;3.70;;
11042;SDS011;5574;48.786;10.120;2023-04-22T00:35:05;5.40;;;3.70;;
11042;SDS011;5574;48.786;10.120;2023-04-22T00:37:33;4.43;;;3.17;;
11042;SDS011;5574;48.786;10.120;2023-04-22T00:40:00;3.23;;;2.90;;
11042;SDS011;5574;48.786;10.120;2023-04-22T00:42:28;3.30;;;3.00;;
11042;SDS011;5574;48.786;10.120;2023-04-22T00:44:56;5.93;;;3.70;;
11042;SDS011;5574;48.786;10.120;2023-04-22T00:47:23;3.47;;;3.20;;
11042;SDS011;5574;48.786;10.120;2023-04-22T00:49:52;4.37;;;3.30;;
11042;SDS011;5574;48.786;10.120;2023-04-22T00:52:19;3.37;;;3.07;;
11042;SDS011;5574;48.786;10.120;2023-04-22T00:54:46;4.27;;;3.80;;
11042;SDS011;5574;48.786;10.120;2023-04-22T00:57:13;3.43;;;3.13;;
11042;SDS011;5574;48.786;10.120;2023-04-22T00:59:42;5.77;;;3.20;;
11042;SDS011;5574;48.786;10.120;2023-04-22T01:02:09;4.93;;;3.10;;
11042;SDS011;5574;48.786;10.120;2023-04-22T01:04:36;7.27;;;3.30;;
11042;SDS011;5574;48.786;10.120;2023-04-22T01:07:03;3.30;;;2.93;;
11042;SDS011;5574;48.786;10.120;2023-04-22T01:09:30;8.77;;;3.57;;
11042;SDS011;5574;48.786;10.120;2023-04-22T01:11:57;6.27;;;3.50;;
11042;SDS011;5574;48.786;10.120;2023-04-22T01:14:23;4.63;;;3.47;;
11042;SDS011;5574;48.786;10.120;2023-04-22T01:16:52;8.43;;;3.50;;
11042;SDS011;5574;48.786;10.120;2023-04-22T01:19:20;5.47;;;3.33;;
11042;SDS011;5574;48.786;10.120;2023-04-22T01:21:47;3.50;;;2.83;;
11042;SDS011;5574;48.786;10.120;2023-04-22T01:24:17;4.03;;;3.30;;
11042;SDS011;5574;48.786;10.120;2023-04-22T01:26:44;5.10;;;3.20;;
11042;SDS011;5574;48.786;10.120;2023-04-22T01:29:12;6.20;;;3.40;;
11042;SDS011;5574;48.786;10.120;2023-04-22T01:31:39;5.67;;;2.87;;
11042;SDS011;5574;48.786;10.120;2023-04-22T01:34:06;7.87;;;3.17;;
11042;SDS011;5574;48.786;10.120;2023-04-22T01:36:33;6.97;;;3.57;;
11042;SDS011;5574;48.786;10.120;2023-04-22T01:38:59;7.80;;;3.43;;
11042;SDS011;5574;48.786;10.120;2023-04-22T01:41:28;8.40;;;3.70;;
11042;SDS011;5574;48.786;10.120;2023-04-22T01:43:55;13.53;;;3.63;;
11042;SDS011;5574;48.786;10.120;2023-04-22T01:46:23;11.30;;;4.03;;
11042;SDS011;5574;48.786;10.120;2023-04-22T01:48:50;4.80;;;3.47;;
11042;SDS011;5574;48.786;10.120;2023-04-22T01:51:16;4.80;;;3.60;;
11042;SDS011;5574;48.786;10.120;2023-04-22T01:53:44;6.70;;;3.60;;
11042;SDS011;5574;48.786;10.120;2023-04-22T01:56:11;7.37;;;3.50;;
11042;SDS011;5574;48.786;10.120;2023-04-22T01:58:39;3.40;;;3.10;;
11042;SDS011;5574;48.786;10.120;2023-04-22T02:01:07;6.40;;;3.47;;
11042;SDS011;5574;48.786;10.120;2023-04-22T02:03:35;6.57;;;3.40;;
11042;SDS011;5574;48.786;10.120;2023-04-22T02:06:02;5.83;;;3.60;;
11042;SDS011;5574;48.786;10.120;2023-04-22T02:08:28;5.07;;;3.37;;
11042;SDS011;5574;48.786;10.120;2023-04-22T02:10:55;9.67;;;3.40;;
11042;SDS011;5574;48.786;10.120;2023-04-22T02:13:24;6.63;;;3.50;;
11042;SDS011;5574;48.786;10.120;2023-04-22T02:15:52;9.10;;;3.17;;
11042;SDS011;5574;48.786;10.120;2023-04-22T02:18:19;8.07;;;3.80;;
11042;SDS011;5574;48.786;10.120;2023-04-22T02:20:45;7.97;;;3.67;;
11042;SDS011;5574;48.786;10.120;2023-04-22T02:23:12;11.00;;;4.00;;
11042;SDS011;5574;48.786;10.120;2023-04-22T02:25:39;5.33;;;3.70;;
11042;SDS011;5574;48.786;10.120;2023-04-22T02:28:06;6.93;;;3.03;;
11042;SDS011;5574;48.786;10.120;2023-04-22T02:30:32;6.60;;;3.40;;
11042;SDS011;5574;48.786;10.120;2023-04-22T02:33:00;8.07;;;3.50;;
11042;SDS011;5574;48.786;10.120;2023-04-22T02:35:27;9.27;;;2.97;;
11042;SDS011;5574;48.786;10.120;2023-04-22T02:37:54;8.83;;;3.03;;
11042;SDS011;5574;48.786;10.120;2023-04-22T02:40:21;8.10;;;3.10;;
11042;SDS011;5574;48.786;10.120;2023-04-22T02:42:48;6.97;;;3.40;;
11042;SDS011;5574;48.786;10.120;2023-04-22T02:45:14;8.47;;;3.50;;
11042;SDS011;5574;48.786;10.120;2023-04-22T02:47:41;3.80;;;3.10;;
11042;SDS011;5574;48.786;10.120;2023-04-22T02:50:09;3.87;;;3.00;;
11042;SDS011;5574;48.786;10.120;2023-04-22T02:52:36;9.63;;;3.20;;
11042;SDS011;5574;48.786;10.120;2023-04-22T02:55:03;4.13;;;3.30;;
11042;SDS011;5574;48.786;10.120;2023-04-22T02:57:30;7.90;;;3.00;;
11042;SDS011;5574;48.786;10.120;2023-04-22T02:59:57;6.90;;;2.97;;
11042;SDS011;5574;48.786;10.120;2023-04-22T03:02:24;5.90;;;3.20;;
11042;SDS011;5574;48.786;10.120;2023-04-22T03:04:50;5.23;;;3.57;;
11042;SDS011;5574;48.786;10.120;2023-04-22T03:07:19;5.50;;;3.03;;
11042;SDS011;5574;48.786;10.120;2023-04-22T03:09:46;6.70;;;3.10;;
11042;SDS011;5574;48.786;10.120;2023-04-22T03:12:13;4.43;;;3.27;;
11042;SDS011;5574;48.786;10.120;2023-04-22T03:14:39;6.90;;;3.63;;
11042;SDS011;5574;48.786;10.120;2023-04-22T03:17:06;3.63;;;3.00;;
11042;SDS011;5574;48.786;10.120;2023-04-22T03:19:33;6.80;;;2.70;;
11042;SDS011;5574;48.786;10.120;2023-04-22T03:22:00;9.60;;;3.27;;
11042;SDS011;5574;48.786;10.120;2023-04-22T03:24:28;9.40;;;2.97;;
11042;SDS011;5574;48.786;10.120;2023-04-22T03:26:55;5.23;;;3.33;;
11042;SDS011;5574;48.786;10.120;2023-04-22T03:29:21;4.67;;;3.10;;
11042;SDS011;5574;48.786;10.120;2023-04-22T03:31:48;5.23;;;3.30;;
11042;SDS011;5574;48.786;10.120;2023-04-22T03:34:15;6.83;;;3.27;;
11042;SDS011;5574;48.786;10.120;2023-04-22T03:36:41;7.20;;;3.30;;
11042;SDS011;5574;48.786;10.120;2023-04-22T03:39:08;6.30;;;3.37;;
11042;SDS011;5574;48.786;10.120;2023-04-22T03:41:36;7.20;;;3.20;;
11042;SDS011;5574;48.786;10.120;2023-04-22T03:44:03;5.07;;;3.00;;
11042;SDS011;5574;48.786;10.120;2023-04-22T03:46:29;6.43;;;3.47;;
11042;SDS011;5574;48.786;10.120;2023-04-22T03:48:56;6.77;;;3.00;;
11042;SDS011;5574;48.786;10.120;2023-04-22T03:51:23;4.00;;;3.10;;
11042;SDS011;5574;48.786;10.120;2023-04-22T03:53:49;4.20;;;3.23;;
11042;SDS011;5574;48.786;10.120;2023-04-22T03:56:16;3.40;;;3.00;;
11042;SDS011;5574;48.786;10.120;2023-04-22T03:58:44;6.67;;;2.80;;
11042;SDS011;5574;48.786;10.120;2023-04-22T04:01:11;8.10;;;3.13;;
11042;SDS011;5574;48.786;10.120;2023-04-22T04:03:37;5.10;;;3.27;;
11042;SDS011;5574;48.786;10.120;2023-04-22T04:06:04;5.53;;;2.87;;
11042;SDS011;5574;48.786;10.120;2023-04-22T04:08:31;7.27;;;3.47;;
11042;SDS011;5574;48.786;10.120;2023-04-22T04:10:58;5.27;;;3.67;;
11042;SDS011;5574;48.786;10.120;2023-04-22T04:13:24;5.23;;;3.30;;
11042;SDS011;5574;48.786;10.120;2023-04-22T04:15:57;7.67;;;4.60;;
11042;SDS011;5574;48.786;10.120;2023-04-22T04:18:25;2.90;;;2.67;;
11042;SDS011;5574;48.786;10.120;2023-04-22T04:20:53;2.47;;;2.27;;
11042;SDS011;5574;48.786;10.120;2023-04-22T04:23:20;4.00;;;2.40;;
11042;SDS011;5574;48.786;10.120;2023-04-22T04:25:47;3.80;;;2.50;;
11042;SDS011;5574;48.786;10.120;2023-04-22T04:28:14;4.57;;;2.93;;
11042;SDS011;5574;48.786;10.120;2023-04-22T04:30:41;4.17;;;3.00;;
11042;SDS011;5574;48.786;10.120;2023-04-22T04:33:09;7.90;;;3.20;;
11042;SDS011;5574;48.786;10.120;2023-04-22T04:35:36;5.73;;;2.90;;
11042;SDS011;5574;48.786;10.120;2023-04-22T04:38:03;3.77;;;2.90;;
11042;SDS011;5574;48.786;10.120;2023-04-22T04:40:30;5.70;;;2.70;;
11042;SDS011;5574;48.786;10.120;2023-04-22T04:42:57;4.90;;;2.70;;
11042;SDS011;5574;48.786;10.120;2023-04-22T04:45:26;3.53;;;2.80;;
11042;SDS011;5574;48.786;10.120;2023-04-22T04:47:53;3.90;;;2.77;;
11042;SDS011;5574;48.786;10.120;2023-04-22T04:50:21;4.03;;;2.47;;
11042;SDS011;5574;48.786;10.120;2023-04-22T04:52:51;5.83;;;2.70;;
11042;SDS011;5574;48.786;10.120;2023-04-22T04:55:18;6.03;;;2.90;;
11042;SDS011;5574;48.786;10.120;2023-04-22T04:57:45;6.43;;;3.00;;
11042;SDS011;5574;48.786;10.120;2023-04-22T05:00:12;6.90;;;3.07;;
11042;SDS011;5574;48.786;10.120;2023-04-22T05:02:39;6.67;;;2.93;;
11042;SDS011;5574;48.786;10.120;2023-04-22T05:05:06;5.37;;;3.00;;
11042;SDS011;5574;48.786;10.120;2023-04-22T05:07:35;4.10;;;2.80;;
11042;SDS011;5574;48.786;10.120;2023-04-22T05:10:02;5.27;;;3.40;;
11042;SDS011;5574;48.786;10.120;2023-04-22T05:12:29;4.90;;;3.17;;
11042;SDS011;5574;48.786;10.120;2023-04-22T05:14:56;8.17;;;3.13;;
11042;SDS011;5574;48.786;10.120;2023-04-22T05:17:23;7.63;;;3.53;;
11042;SDS011;5574;48.786;10.120;2023-04-22T05:19:49;4.70;;;3.07;;
11042;SDS011;5574;48.786;10.120;2023-04-22T05:22:16;6.53;;;3.20;;
11042;SDS011;5574;48.786;10.120;2023-04-22T05:24:44;6.47;;;3.23;;
11042;SDS011;5574;48.786;10.120;2023-04-22T05:27:11;7.07;;;3.23;;
11042;SDS011;5574;48.786;10.120;2023-04-22T05:29:38;6.47;;;2.90;;
11042;SDS011;5574;48.786;10.120;2023-04-22T05:32:05;4.87;;;2.80;;
11042;SDS011;5574;48.786;10.120;2023-04-22T05:34:32;4.30;;;2.90;;
11042;SDS011;5574;48.786;10.120;2023-04-22T05:36:59;6.63;;;3.17;;
11042;SDS011;5574;48.786;10.120;2023-04-22T05:39:27;7.37;;;3.33;;
11042;SDS011;5574;48.786;10.120;2023-04-22T05:41:55;4.33;;;2.90;;
11042;SDS011;5574;48.786;10.120;2023-04-22T05:44:22;4.83;;;2.87;;
11042;SDS011;5574;48.786;10.120;2023-04-22T05:46:49;7.30;;;2.90;;
11042;SDS011;5574;48.786;10.120;2023-04-22T05:49:17;3.97;;;2.80;;
11042;SDS011;5574;48.786;10.120;2023-04-22T05:51:44;4.17;;;3.30;;
11042;SDS011;5574;48.786;10.120;2023-04-22T05:54:10;8.67;;;3.20;;
11042;SDS011;5574;48.786;10.120;2023-04-22T05:56:37;5.23;;;2.93;;
11042;SDS011;5574;48.786;10.120;2023-04-22T05:59:05;12.63;;;3.50;;
11042;SDS011;5574;48.786;10.120;2023-04-22T06:01:32;6.03;;;3.23;;
11042;SDS011;5574;48.786;10.120;2023-04-22T06:03:58;12.20;;;3.40;;
11042;SDS011;5574;48.786;10.120;2023-04-22T06:06:25;13.93;;;4.03;;
11042;SDS011;5574;48.786;10.120;2023-04-22T06:08:52;17.57;;;4.07;;
11042;SDS011;5574;48.786;10.120;2023-04-22T06:11:19;12.07;;;4.10;;
11042;SDS011;5574;48.786;10.120;2023-04-22T06:13:46;18.17;;;4.50;;
11042;SDS011;5574;48.786;10.120;2023-04-22T06:16:14;13.83;;;4.13;;
11042;SDS011;5574;48.786;10.120;2023-04-22T06:18:40;20.50;;;5.10;;
11042;SDS011;5574;48.786;10.120;2023-04-22T06:21:08;12.63;;;4.43;;
11042;SDS011;5574;48.786;10.120;2023-04-22T06:23:35;12.03;;;4.10;;
11042;SDS011;5574;48.786;10.120;2023-04-22T06:26:01;18.97;;;4.93;;
11042;SDS011;5574;48.786;10.120;2023-04-22T06:28:28;9.60;;;3.50;;
11042;SDS011;5574;48.786;10.120;2023-04-22T06:30:55;13.37;;;3.97;;
11042;SDS011;5574;48.786;10.120;2023-04-22T06:33:23;9.33;;;3.63;;
11042;SDS011;5574;48.786;10.120;2023-04-22T06:35:50;11.17;;;3.43;;
11042;SDS011;5574;48.786;10.120;2023-04-22T06:38:16;7.17;;;2.83;;
11042;SDS011;5574;48.786;10.120;2023-04-22T06:40:43;10.80;;;3.20;;
11042;SDS011;5574;48.786;10.120;2023-04-22T06:43:10;18.33;;;3.47;;
11042;SDS011;5574;48.786;10.120;2023-04-22T06:45:36;10.60;;;3.23;;
11042;SDS011;5574;48.786;10.120;2023-04-22T06:48:03;8.73;;;3.03;;
11042;SDS011;5574;48.786;10.120;2023-04-22T06:50:31;10.07;;;2.80;;
11042;SDS011;5574;48.786;10.120;2023-04-22T06:52:58;9.37;;;3.20;;
11042;SDS011;5574;48.786;10.120;2023-04-22T06:55:25;11.70;;;3.53;;
11042;SDS011;5574;48.786;10.120;2023-04-22T06:57:51;9.30;;;3.47;;
11042;SDS011;5574;48.786;10.120;2023-04-22T07:00:18;6.67;;;2.97;;
11042;SDS011;5574;48.786;10.120;2023-04-22T07:02:45;9.50;;;3.40;;
11042;SDS011;5574;48.786;10.120;2023-04-22T07:05:11;7.03;;;3.43;;
11042;SDS011;5574;48.786;10.120;2023-04-22T07:07:39;10.47;;;3.30;;
11042;SDS011;5574;48.786;10.120;2023-04-22T07:10:06;9.13;;;3.30;;
11042;SDS011;5574;48.786;10.120;2023-04-22T07:12:34;11.10;;;3.20;;
11042;SDS011;5574;48.786;10.120;2023-04-22T07:15:01;7.63;;;2.87;;
11042;SDS011;5574;48.786;10.120;2023-04-22T07:17:28;11.67;;;3.23;;
11042;SDS011;5574;48.786;10.120;2023-04-22T07:19:54;6.67;;;2.90;;
11042;SDS011;5574;48.786;10.120;2023-04-22T07:22:21;6.87;;;2.80;;
11042;SDS011;5574;48.786;10.120;2023-04-22T07:24:49;6.73;;;3.10;;
11042;SDS011;5574;48.786;10.120;2023-04-22T07:27:16;9.20;;;3.10;;
11042;SDS011;5574;48.786;10.120;2023-04-22T07:29:42;11.70;;;3.13;;
11042;SDS011;5574;48.786;10.120;2023-04-22T07:32:09;10.27;;;3.83;;
11042;SDS011;5574;48.786;10.120;2023-04-22T07:34:36;11.83;;;4.37;;
11042;SDS011;5574;48.786;10.120;2023-04-22T07:37:02;8.20;;;3.07;;
11042;SDS011;5574;48.786;10.120;2023-04-22T07:39:31;6.60;;;2.80;;
11042;SDS011;5574;48.786;10.120;2023-04-22T07:41:59;10.67;;;3.43;;
11042;SDS011;5574;48.786;10.120;2023-04-22T07:44:26;3.93;;;2.30;;
11042;SDS011;5574;48.786;10.120;2023-04-22T07:46:52;5.37;;;2.67;;
11042;SDS011;5574;48.786;10.120;2023-04-22T07:49:19;13.93;;;3.20;;
11042;SDS011;5574;48.786;10.120;2023-04-22T07:51:46;4.63;;;2.30;;
11042;SDS011;5574;48.786;10.120;2023-04-22T07:54:13;13.17;;;2.70;;
11042;SDS011;5574;48.786;10.120;2023-04-22T07:56:39;7.13;;;2.43;;
11042;SDS011;5574;48.786;10.120;2023-04-22T07:59:07;5.30;;;2.10;;
11042;SDS011;5574;48.786;10.120;2023-04-22T08:01:34;5.77;;;2.20;;
11042;SDS011;5574;48.786;10.120;2023-04-22T08:04:01;15.07;;;3.10;;
11042;SDS011;5574;48.786;10.120;2023-04-22T08:06:27;7.20;;;2.30;;
11042;SDS011;5574;48.786;10.120;2023-04-22T08:08:54;10.80;;;2.50;;
11042;SDS011;5574;48.786;10.120;2023-04-22T08:11:21;5.90;;;2.37;;
11042;SDS011;5574;48.786;10.120;2023-04-22T08:13:48;5.33;;;2.00;;
11042;SDS011;5574;48.786;10.120;2023-04-22T08:16:16;3.87;;;1.97;;
11042;SDS011;5574;48.786;10.120;2023-04-22T08:18:43;6.03;;;2.00;;
11042;SDS011;5574;48.786;10.120;2023-04-22T08:21:10;2.85;;;1.80;;
11042;SDS011;5574;48.786;10.120;2023-04-22T08:23:37;2.90;;;1.80;;
11042;SDS011;5574;48.786;10.120;2023-04-22T08:26:03;2.80;;;1.63;;
11042;SDS011;5574;48.786;10.120;2023-04-22T08:28:33;2.20;;;1.52;;
11042;SDS011;5574;48.786;10.120;2023-04-22T08:30:59;3.50;;;1.48;;
11042;SDS011;5574;48.786;10.120;2023-04-22T08:33:28;12.73;;;2.10;;
11042;SDS011;5574;48.786;10.120;2023-04-22T08:35:54;6.00;;;2.05;;
11042;SDS011;5574;48.786;10.120;2023-04-22T08:38:21;3.53;;;1.80;;
11042;SDS011;5574;48.786;10.120;2023-04-22T08:40:48;3.60;;;1.85;;
11042;SDS011;5574;48.786;10.120;2023-04-22T08:43:15;1.65;;;1.55;;
11042;SDS011;5574;48.786;10.120;2023-04-22T08:45:43;1.65;;;1.55;;
11042;SDS011;5574;48.786;10.120;2023-04-22T08:48:10;2.65;;;1.75;;
11042;SDS011;5574;48.786;10.120;2023-04-22T08:50:39;4.18;;;1.60;;
11042;SDS011;5574;48.786;10.120;2023-04-22T08:53:07;6.20;;;1.70;;
11042;SDS011;5574;48.786;10.120;2023-04-22T08:55:33;1.45;;;1.35;;
11042;SDS011;5574;48.786;10.120;2023-04-22T08:58:01;7.63;;;1.70;;
11042;SDS011;5574;48.786;10.120;2023-04-22T09:00:30;3.13;;;1.40;;
11042;SDS011;5574;48.786;10.120;2023-04-22T09:02:58;1.65;;;1.45;;
11042;SDS011;5574;48.786;10.120;2023-04-22T09:05:27;7.43;;;1.95;;
11042;SDS011;5574;48.786;10.120;2023-04-22T09:07:57;2.95;;;1.40;;
11042;SDS011;5574;48.786;10.120;2023-04-22T09:10:24;6.22;;;1.77;;
11042;SDS011;5574;48.786;10.120;2023-04-22T09:12:50;1.90;;;1.65;;
11042;SDS011;5574;48.786;10.120;2023-04-22T09:15:18;2.45;;;1.30;;
11042;SDS011;5574;48.786;10.120;2023-04-22T09:17:45;6.72;;;1.58;;
11042;SDS011;5574;48.786;10.120;2023-04-22T09:20:11;1.70;;;1.42;;
11042;SDS011;5574;48.786;10.120;2023-04-22T09:22:41;1.30;;;1.20;;
11042;SDS011;5574;48.786;10.120;2023-04-22T09:25:16;1.63;;;1.52;;
11042;SDS011;5574;48.786;10.120;2023-04-22T09:27:47;4.70;;;1.70;;
11042;SDS011;5574;48.786;10.120;2023-04-22T09:30:15;1.73;;;1.35;;
11042;SDS011;5574;48.786;10.120;2023-04-22T09:32:50;1.25;;;1.20;;
11042;SDS011;5574;48.786;10.120;2023-04-22T09:35:21;1.70;;;1.40;;
11042;SDS011;5574;48.786;10.120;2023-04-22T09:37:52;1.40;;;1.38;;
11042;SDS011;5574;48.786;10.120;2023-04-22T09:40:20;3.30;;;1.50;;
11042;SDS011;5574;48.786;10.120;2023-04-22T09:42:47;1.58;;;1.48;;
11042;SDS011;5574;48.786;10.120;2023-04-22T09:45:23;3.38;;;1.77;;
11042;SDS011;5574;48.786;10.120;2023-04-22T09:47:52;1.50;;;1.40;;
11042;SDS011;5574;48.786;10.120;2023-04-22T09:50:19;1.88;;;1.40;;
11042;SDS011;5574;48.786;10.120;2023-04-22T09:52:52;1.45;;;1.20;;
11042;SDS011;5574;48.786;10.120;2023-04-22T09:55:21;2.42;;;1.20;;
11042;SDS011;5574;48.786;10.120;2023-04-22T09:57:50;9.93;;;1.65;;
11042;SDS011;5574;48.786;10.120;2023-04-22T10:00:18;2.88;;;1.20;;
11042;SDS011;5574;48.786;10.120;2023-04-22T10:02:44;2.00;;;1.27;;
11042;SDS011;5574;48.786;10.120;2023-04-22T10:05:11;1.42;;;1.30;;
11042;SDS011;5574;48.786;10.120;2023-04-22T10:07:38;1.40;;;1.30;;
11042;SDS011;5574;48.786;10.120;2023-04-22T10:10:05;2.00;;;1.13;;
11042;SDS011;5574;48.786;10.120;2023-04-22T10:12:35;1.60;;;1.15;;
11042;SDS011;5574;48.786;10.120;2023-04-22T10:15:02;3.13;;;1.30;;
11042;SDS011;5574;48.786;10.120;2023-04-22T10:17:29;3.03;;;1.60;;
11042;SDS011;5574;48.786;10.120;2023-04-22T10:19:58;1.45;;;1.35;;
11042;SDS011;5574;48.786;10.120;2023-04-22T10:22:27;1.40;;;1.30;;
11042;SDS011;5574;48.786;10.120;2023-04-22T10:24:54;2.22;;;1.10;;
11042;SDS011;5574;48.786;10.120;2023-04-22T10:27:22;1.17;;;1.10;;
11042;SDS011;5574;48.786;10.120;2023-04-22T10:29:50;1.48;;;1.27;;
11042;SDS011;5574;48.786;10.120;2023-04-22T10:32:23;1.98;;;1.35;;
11042;SDS011;5574;48.786;10.120;2023-04-22T10:35:05;1.50;;;1.40;;
11042;SDS011;5574;48.786;10.120;2023-04-22T10:37:34;2.80;;;1.40;;
11042;SDS011;5574;48.786;10.120;2023-04-22T10:40:09;1.50;;;1.40;;
11042;SDS011;5574;48.786;10.120;2023-04-22T10:42:40;3.13;;;1.55;;
11042;SDS011;5574;48.786;10.120;2023-04-22T10:45:10;1.27;;;1.17;;
11042;SDS011;5574;48.786;10.120;2023-04-22T10:47:38;1.40;;;1.30;;
11042;SDS011;5574;48.786;10.120;2023-04-22T10:50:16;1.45;;;1.40;;
11042;SDS011;5574;48.786;10.120;2023-04-22T10:52:46;1.33;;;1.23;;
11042;SDS011;5574;48.786;10.120;2023-04-22T10:55:15;1.50;;;1.17;;
11042;SDS011;5574;48.786;10.120;2023-04-22T10:57:42;2.85;;;1.35;;
11042;SDS011;5574;48.786;10.120;2023-04-22T11:00:19;1.88;;;1.13;;
11042;SDS011;5574;48.786;10.120;2023-04-22T11:02:51;2.40;;;1.27;;
11042;SDS011;5574;48.786;10.120;2023-04-22T11:05:20;1.30;;;1.20;;
11042;SDS011;5574;48.786;10.120;2023-04-22T11:07:50;1.48;;;1.08;;
11042;SDS011;5574;48.786;10.120;2023-04-22T11:10:31;1.52;;;1.17;;
11042;SDS011;5574;48.786;10.120;2023-04-22T11:12:59;1.00;;;0.98;;
11042;SDS011;5574;48.786;10.120;2023-04-22T11:15:27;1.30;;;1.20;;
11042;SDS011;5574;48.786;10.120;2023-04-22T11:17:55;2.63;;;0.90;;
11042;SDS011;5574;48.786;10.120;2023-04-22T11:20:22;1.98;;;1.30;;
11042;SDS011;5574;48.786;10.120;2023-04-22T11:22:49;2.47;;;1.10;;
11042;SDS011;5574;48.786;10.120;2023-04-22T11:25:18;1.27;;;1.20;;
11042;SDS011;5574;48.786;10.120;2023-04-22T11:27:45;1.35;;;1.25;;
11042;SDS011;5574;48.786;10.120;2023-04-22T11:30:12;1.02;;;1.02;;
11042;SDS011;5574;48.786;10.120;2023-04-22T11:32:42;1.77;;;1.30;;
11042;SDS011;5574;48.786;10.120;2023-04-22T11:35:10;2.13;;;1.20;;
11042;SDS011;5574;48.786;10.120;2023-04-22T11:37:38;1.30;;;1.20;;
11042;SDS011;5574;48.786;10.120;2023-04-22T11:40:06;2.58;;;1.40;;
11042;SDS011;5574;48.786;10.120;2023-04-22T11:42:34;1.20;;;1.10;;
11042;SDS011;5574;48.786;10.120;2023-04-22T11:45:01;1.10;;;1.00;;
11042;SDS011;5574;48.786;10.120;2023-04-22T11:47:28;0.90;;;0.90;;
11042;SDS011;5574;48.786;10.120;2023-04-22T11:49:57;1.77;;;1.23;;
11042;SDS011;5574;48.786;10.120;2023-04-22T11:52:39;1.23;;;1.00;;
11042;SDS011;5574;48.786;10.120;2023-04-22T11:55:10;2.55;;;1.02;;
11042;SDS011;5574;48.786;10.120;2023-04-22T11:57:37;1.48;;;1.15;;
11042;SDS011;5574;48.786;10.120;2023-04-22T12:00:05;1.17;;;0.90;;
11042;SDS011;5574;48.786;10.120;2023-04-22T12:02:35;1.55;;;1.08;;
11042;SDS011;5574;48.786;10.120;2023-04-22T12:05:04;1.98;;;1.20;;
11042;SDS011;5574;48.786;10.120;2023-04-22T12:07:35;1.10;;;1.10;;
11042;SDS011;5574;48.786;10.120;2023-04-22T12:10:03;1.58;;;1.30;;
11042;SDS011;5574;48.786;10.120;2023-04-22T12:12:31;1.30;;;1.20;;
11042;SDS011;5574;48.786;10.120;2023-04-22T12:15:05;1.05;;;1.05;;
11042;SDS011;5574;48.786;10.120;2023-04-22T12:17:32;3.67;;;1.40;;
11042;SDS011;5574;48.786;10.120;2023-04-22T12:19:59;1.33;;;1.23;;
11042;SDS011;5574;48.786;10.120;2023-04-22T12:22:27;1.08;;;1.08;;
11042;SDS011;5574;48.786;10.120;2023-04-22T12:24:57;1.58;;;1.05;;
11042;SDS011;5574;48.786;10.120;2023-04-22T12:27:24;1.63;;;1.00;;
11042;SDS011;5574;48.786;10.120;2023-04-22T12:29:52;1.20;;;1.10;;
11042;SDS011;5574;48.786;10.120;2023-04-22T12:32:19;1.00;;;1.00;;
11042;SDS011;5574;48.786;10.120;2023-04-22T12:34:46;1.10;;;1.10;;
11042;SDS011;5574;48.786;10.120;2023-04-22T12:37:13;1.13;;;1.00;;
11042;SDS011;5574;48.786;10.120;2023-04-22T12:39:43;2.53;;;1.15;;
11042;SDS011;5574;48.786;10.120;2023-04-22T12:42:10;2.40;;;1.42;;
11042;SDS011;5574;48.786;10.120;2023-04-22T12:44:37;1.85;;;1.20;;
11042;SDS011;5574;48.786;10.120;2023-04-22T12:47:03;1.58;;;1.48;;
11042;SDS011;5574;48.786;10.120;2023-04-22T12:49:30;8.52;;;6.25;;
11042;SDS011;5574;48.786;10.120;2023-04-22T12:51:57;10.93;;;6.47;;
11042;SDS011;5574;48.786;10.120;2023-04-22T12:54:24;1.48;;;1.35;;
11042;SDS011;5574;48.786;10.120;2023-04-22T12:56:52;1.38;;;1.27;;
11042;SDS011;5574;48.786;10.120;2023-04-22T12:59:19;1.10;;;1.10;;
11042;SDS011;5574;48.786;10.120;2023-04-22T13:01:45;1.15;;;1.15;;
11042;SDS011;5574;48.786;10.120;2023-04-22T13:04:12;1.60;;;1.50;;
11042;SDS011;5574;48.786;10.120;2023-04-22T13:06:39;1.55;;;1.45;;
11042;SDS011;5574;48.786;10.120;2023-04-22T13:09:06;1.20;;;1.10;;
11042;SDS011;5574;48.786;10.120;2023-04-22T13:11:33;2.28;;;1.20;;
11042;SDS011;5574;48.786;10.120;2023-04-22T13:14:01;2.00;;;1.50;;
11042;SDS011;5574;48.786;10.120;2023-04-22T13:16:27;1.23;;;1.10;;
11042;SDS011;5574;48.786;10.120;2023-04-22T13:18:55;1.95;;;1.20;;
11042;SDS011;5574;48.786;10.120;2023-04-22T13:21:22;4.13;;;1.33;;
11042;SDS011;5574;48.786;10.120;2023-04-22T13:23:48;2.47;;;1.30;;
11042;SDS011;5574;48.786;10.120;2023-04-22T13:26:15;2.10;;;1.50;;
11042;SDS011;5574;48.786;10.120;2023-04-22T13:28:42;1.33;;;1.23;;
11042;SDS011;5574;48.786;10.120;2023-04-22T13:31:10;1.95;;;1.35;;
11042;SDS011;5574;48.786;10.120;2023-04-22T13:33:36;1.58;;;1.30;;
11042;SDS011;5574;48.786;10.120;2023-04-22T13:36:03;2.15;;;1.33;;
11042;SDS011;5574;48.786;10.120;2023-04-22T13:38:30;1.55;;;1.45;;
11042;SDS011;5574;48.786;10.120;2023-04-22T13:40:57;1.60;;;1.30;;
11042;SDS011;5574;48.786;10.120;2023-04-22T13:43:24;1.40;;;1.30;;
11042;SDS011;5574;48.786;10.120;2023-04-22T13:45:51;1.10;;;1.05;;
11042;SDS011;5574;48.786;10.120;2023-04-22T13:48:19;1.52;;;1.30;;
11042;SDS011;5574;48.786;10.120;2023-04-22T13:50:46;2.22;;;1.40;;
11042;SDS011;5574;48.786;10.120;2023-04-22T13:53:13;1.20;;;1.10;;
11042;SDS011;5574;48.786;10.120;2023-04-22T13:55:39;1.83;;;1.40;;
11042;SDS011;5574;48.786;10.120;2023-04-22T13:58:07;1.50;;;1.40;;
11042;SDS011;5574;48.786;10.120;2023-04-22T14:00:34;1.40;;;1.30;;
11042;SDS011;5574;48.786;10.120;2023-04-22T14:03:00;4.93;;;1.48;;
11042;SDS011;5574;48.786;10.120;2023-04-22T14:05:28;1.60;;;1.50;;
11042;SDS011;5574;48.786;10.120;2023-04-22T14:07:55;2.45;;;1.30;;
11042;SDS011;5574;48.786;10.120;2023-04-22T14:10:22;2.00;;;1.13;;
11042;SDS011;5574;48.786;10.120;2023-04-22T14:12:49;2.58;;;1.30;;
11042;SDS011;5574;48.786;10.120;2023-04-22T14:15:16;1.30;;;1.30;;
11042;SDS011;5574;48.786;10.120;2023-04-22T14:17:43;1.30;;;1.20;;
11042;SDS011;5574;48.786;10.120;2023-04-22T14:20:13;2.13;;;1.17;;
11042;SDS011;5574;48.786;10.120;2023-04-22T14:22:41;2.92;;;1.25;;
11042;SDS011;5574;48.786;10.120;2023-04-22T14:25:08;1.75;;;1.27;;
11042;SDS011;5574;48.786;10.120;2023-04-22T14:27:35;1.92;;;1.38;;
11042;SDS011;5574;48.786;10.120;2023-04-22T14:30:01;1.55;;;1.02;;
11042;SDS011;5574;48.786;10.120;2023-04-22T14:32:30;2.83;;;1.35;;
11042;SDS011;5574;48.786;10.120;2023-04-22T14:34:56;1.17;;;1.08;;
11042;SDS011;5574;48.786;10.120;2023-04-22T14:37:23;1.20;;;1.10;;
11042;SDS011;5574;48.786;10.120;2023-04-22T14:39:52;2.30;;;1.58;;
11042;SDS011;5574;48.786;10.120;2023-04-22T14:42:19;1.65;;;1.25;;
11042;SDS011;5574;48.786;10.120;2023-04-22T14:44:46;1.50;;;1.40;;
11042;SDS011;5574;48.786;10.120;2023-04-22T14:47:12;2.05;;;1.40;;